createdAt,value
2023-05-02T00:00:11.558Z,10.35
2023-05-02T00:02:39.948Z,10.77
2023-05-02T00:05:09.010Z,11.30
2023-05-02T00:07:38.627Z,11.25
2023-05-02T00:10:08.885Z,11.67
2023-05-02T00:12:36.697Z,10.68
2023-05-02T00:15:05.300Z,11.60
2023-05-02T00:17:33.686Z,10.60
2023-05-02T00:20:01.745Z,10.00
2023-05-02T00:22:30.096Z,11.55
2023-05-02T00:24:58.646Z,11.38
2023-05-02T00:27:29.119Z,11.15
2023-05-02T00:29:57.658Z,10.50
2023-05-02T00:32:26.053Z,10.50
2023-05-02T00:34:53.912Z,10.02
2023-05-02T00:37:21.670Z,9.45
2023-05-02T00:39:52.227Z,10.55
2023-05-02T00:42:19.870Z,9.95
2023-05-02T00:44:49.634Z,10.10
2023-05-02T00:47:17.341Z,9.38
2023-05-02T00:49:46.065Z,10.20
2023-05-02T00:52:14.085Z,8.73
2023-05-02T00:54:42.427Z,8.50
2023-05-02T00:57:10.177Z,8.27
2023-05-02T00:59:38.920Z,6.45
2023-05-02T01:02:19.743Z,6.88
2023-05-02T01:04:57.641Z,6.45
2023-05-02T01:07:41.587Z,5.63
2023-05-02T01:10:21.625Z,5.20
2023-05-02T01:12:57.547Z,5.70
2023-05-02T01:15:26.714Z,4.97
2023-05-02T01:17:57.217Z,4.68
2023-05-02T01:22:59.440Z,4.45
2023-05-02T01:25:32.905Z,4.30
2023-05-02T01:28:11.499Z,3.85
2023-05-02T01:30:45.205Z,4.70
2023-05-02T01:33:16.966Z,3.83
2023-05-02T01:35:49.092Z,4.90
2023-05-02T01:38:19.054Z,4.63
2023-05-02T01:40:48.991Z,4.35
2023-05-02T01:43:18.659Z,4.63
2023-05-02T01:45:51.006Z,4.23
2023-05-02T01:48:20.867Z,4.63
2023-05-02T01:50:50.311Z,4.50
2023-05-02T01:53:18.709Z,4.35
2023-05-02T01:55:47.825Z,4.20
2023-05-02T01:58:19.087Z,4.43
2023-05-02T02:00:49.199Z,4.40
2023-05-02T02:03:19.301Z,4.53
2023-05-02T02:05:50.313Z,4.80
2023-05-02T02:08:18.526Z,4.72
2023-05-02T02:10:51.413Z,5.10
2023-05-02T02:13:21.221Z,4.80
2023-05-02T02:15:54.715Z,4.32
2023-05-02T02:18:26.428Z,4.80
2023-05-02T02:20:58.186Z,4.63
2023-05-02T02:23:29.557Z,4.80
2023-05-02T02:25:58.612Z,4.75
2023-05-02T02:28:26.438Z,4.40
2023-05-02T02:30:56.319Z,4.45
2023-05-02T02:33:30.575Z,4.50
2023-05-02T02:36:04.598Z,4.70
2023-05-02T02:38:42.879Z,4.88
2023-05-02T02:41:17.209Z,4.38
2023-05-02T02:43:54.753Z,4.30
2023-05-02T02:46:36.218Z,4.15
2023-05-02T02:49:16.255Z,4.40
2023-05-02T02:51:48.418Z,4.07
2023-05-02T02:54:30.528Z,4.75
2023-05-02T02:57:06.808Z,4.65
2023-05-02T02:59:36.711Z,4.82
2023-05-02T03:02:09.558Z,4.90
2023-05-02T03:04:40.335Z,4.40
2023-05-02T03:07:08.510Z,3.88
2023-05-02T03:09:43.236Z,4.65
2023-05-02T03:12:11.716Z,4.50
2023-05-02T03:14:40.323Z,4.10
2023-05-02T03:17:09.370Z,4.28
2023-05-02T03:19:38.400Z,4.90
2023-05-02T03:22:06.943Z,4.20
2023-05-02T03:24:34.613Z,4.35
2023-05-02T03:27:03.361Z,3.97
2023-05-02T03:29:31.236Z,4.43
2023-05-02T03:31:59.436Z,4.55
2023-05-02T03:34:28.596Z,4.05
2023-05-02T03:36:57.400Z,4.25
2023-05-02T03:39:25.622Z,4.03
2023-05-02T03:41:53.774Z,4.07
2023-05-02T03:44:21.870Z,3.60
2023-05-02T03:46:49.991Z,4.22
2023-05-02T03:49:19.491Z,3.95
2023-05-02T03:51:49.263Z,3.72
2023-05-02T03:54:16.866Z,4.00
2023-05-02T03:56:46.154Z,3.78
2023-05-02T03:59:14.473Z,3.80
2023-05-02T04:01:42.320Z,3.72
2023-05-02T04:04:11.696Z,3.78
2023-05-02T04:06:40.341Z,4.10
2023-05-02T04:09:09.720Z,3.70
2023-05-02T04:11:37.423Z,3.58
2023-05-02T04:14:05.681Z,4.00
2023-05-02T04:16:36.483Z,3.78
2023-05-02T04:19:05.455Z,3.33
2023-05-02T04:21:33.129Z,3.55
2023-05-02T04:24:01.220Z,3.60
2023-05-02T04:26:30.635Z,3.45
2023-05-02T04:28:58.327Z,3.22
2023-05-02T04:31:27.233Z,3.20
2023-05-02T04:33:55.068Z,3.50
2023-05-02T04:36:23.238Z,3.40
2023-05-02T04:38:50.937Z,3.40
2023-05-02T04:41:19.825Z,3.38
2023-05-02T04:43:48.897Z,3.40
2023-05-02T04:46:17.762Z,4.22
2023-05-02T04:48:46.046Z,3.92
2023-05-02T04:51:16.261Z,3.75
2023-05-02T04:53:45.161Z,4.43
2023-05-02T04:56:12.811Z,4.32
2023-05-02T04:58:41.471Z,3.80
2023-05-02T05:01:10.571Z,3.95
2023-05-02T05:03:38.518Z,4.00
2023-05-02T05:06:06.814Z,3.80
2023-05-02T05:08:34.570Z,4.25
2023-05-02T05:11:04.291Z,4.30
2023-05-02T05:13:31.987Z,4.80
2023-05-02T05:16:00.113Z,3.80
2023-05-02T05:18:29.211Z,4.20
2023-05-02T05:20:57.429Z,4.40
2023-05-02T05:23:25.639Z,3.70
2023-05-02T05:25:53.326Z,3.85
2023-05-02T05:28:21.318Z,4.03
2023-05-02T05:30:49.038Z,4.30
2023-05-02T05:33:17.404Z,4.05
2023-05-02T05:35:46.531Z,4.88
2023-05-02T05:38:15.364Z,4.03
2023-05-02T05:40:43.056Z,4.97
2023-05-02T05:43:11.205Z,3.92
2023-05-02T05:45:38.944Z,4.53
2023-05-02T05:48:07.568Z,4.53
2023-05-02T05:50:36.002Z,4.63
2023-05-02T05:53:04.994Z,4.65
2023-05-02T05:55:32.740Z,4.47
2023-05-02T05:58:01.677Z,4.75
2023-05-02T06:00:29.883Z,4.78
2023-05-02T06:02:57.795Z,4.70
2023-05-02T06:05:26.091Z,4.43
2023-05-02T06:07:53.781Z,4.55
2023-05-02T06:10:23.152Z,4.63
2023-05-02T06:12:51.031Z,4.30
2023-05-02T06:15:19.510Z,5.43
2023-05-02T06:17:47.204Z,4.60
2023-05-02T06:20:16.665Z,4.90
2023-05-02T06:22:46.139Z,4.75
2023-05-02T06:25:13.786Z,5.05
2023-05-02T06:27:43.024Z,5.45
2023-05-02T06:30:11.167Z,5.75
2023-05-02T06:32:39.073Z,6.00
2023-05-02T06:35:07.546Z,6.03
2023-05-02T06:37:35.962Z,5.78
2023-05-02T06:40:05.183Z,5.95
2023-05-02T06:42:32.874Z,6.18
2023-05-02T06:45:01.950Z,6.25
2023-05-02T06:47:30.062Z,6.68
2023-05-02T06:49:57.881Z,6.40
2023-05-02T06:52:26.021Z,6.28
2023-05-02T06:54:53.662Z,7.05
2023-05-02T06:57:21.383Z,7.22
2023-05-02T06:59:50.230Z,6.95
2023-05-02T07:02:19.795Z,6.97
2023-05-02T07:04:47.530Z,7.35
2023-05-02T07:07:19.302Z,8.52
2023-05-02T07:09:47.111Z,7.43
2023-05-02T07:12:15.332Z,7.53
2023-05-02T07:14:43.299Z,7.15
2023-05-02T07:17:11.459Z,7.00
2023-05-02T07:19:41.380Z,7.00
2023-05-02T07:22:10.397Z,7.07
2023-05-02T07:24:41.284Z,5.93
2023-05-02T07:27:09.772Z,7.90
2023-05-02T07:29:38.155Z,6.60
2023-05-02T07:32:06.420Z,7.07
2023-05-02T07:34:34.574Z,6.38
2023-05-02T07:37:03.516Z,6.25
2023-05-02T07:39:32.402Z,6.10
2023-05-02T07:42:00.492Z,6.40
2023-05-02T07:44:28.604Z,6.07
2023-05-02T07:46:56.471Z,6.00
2023-05-02T07:49:24.767Z,6.63
2023-05-02T07:51:52.398Z,6.35
2023-05-02T07:54:23.453Z,5.88
2023-05-02T07:56:51.216Z,6.30
2023-05-02T07:59:19.959Z,5.60
2023-05-02T08:01:47.740Z,5.43
2023-05-02T08:04:16.389Z,5.63
2023-05-02T08:06:45.534Z,5.20
2023-05-02T08:09:13.928Z,5.63
2023-05-02T08:11:43.468Z,5.28
2023-05-02T08:14:11.564Z,5.72
2023-05-02T08:16:39.277Z,5.72
2023-05-02T08:19:08.152Z,5.45
2023-05-02T08:21:36.440Z,5.55
2023-05-02T08:24:04.710Z,5.80
2023-05-02T08:26:32.310Z,4.30
2023-05-02T08:29:01.986Z,4.68
2023-05-02T08:31:29.661Z,5.57
2023-05-02T08:33:57.778Z,5.28
2023-05-02T08:36:26.105Z,4.82
2023-05-02T08:38:53.773Z,4.47
2023-05-02T08:41:22.190Z,4.53
2023-05-02T08:43:50.330Z,3.97
2023-05-02T08:46:19.482Z,3.20
2023-05-02T08:48:49.340Z,2.70
2023-05-02T08:53:48.422Z,3.03
2023-05-02T08:56:16.111Z,3.03
2023-05-02T08:58:43.772Z,3.50
2023-05-02T09:01:15.670Z,3.55
2023-05-02T09:03:46.700Z,3.60
2023-05-02T09:06:17.147Z,4.03
2023-05-02T09:11:14.342Z,3.60
2023-05-02T09:13:43.670Z,3.60
2023-05-02T09:16:12.546Z,4.50
2023-05-02T09:18:41.889Z,3.70
2023-05-02T09:21:12.981Z,3.72
2023-05-02T09:23:42.730Z,3.08
2023-05-02T09:26:18.732Z,3.53
2023-05-02T09:28:48.000Z,3.58
2023-05-02T09:31:26.794Z,3.72
2023-05-02T09:34:10.040Z,3.60
2023-05-02T09:36:43.080Z,3.53
2023-05-02T09:39:13.388Z,3.50
2023-05-02T09:41:41.695Z,3.70
2023-05-02T09:44:12.990Z,3.30
2023-05-02T09:46:41.895Z,4.18
2023-05-02T09:49:10.164Z,4.07
2023-05-02T09:51:38.331Z,4.20
2023-05-02T09:54:08.167Z,3.60
2023-05-02T09:56:53.083Z,4.15
2023-05-02T09:59:21.210Z,3.50
2023-05-02T10:01:56.982Z,3.85
2023-05-02T10:04:27.335Z,3.65
2023-05-02T10:06:56.270Z,3.50
2023-05-02T10:09:27.888Z,4.10
2023-05-02T10:11:57.838Z,3.95
2023-05-02T10:14:29.734Z,3.35
2023-05-02T10:17:02.501Z,2.97
2023-05-02T10:19:35.651Z,3.53
2023-05-02T10:22:04.802Z,3.28
2023-05-02T10:24:35.108Z,3.58
2023-05-02T10:27:05.930Z,3.17
2023-05-02T10:29:34.812Z,2.83
2023-05-02T10:32:06.056Z,2.67
2023-05-02T10:34:34.436Z,2.58
2023-05-02T10:37:02.906Z,2.60
2023-05-02T10:39:31.343Z,2.67
2023-05-02T10:42:03.284Z,2.75
2023-05-02T10:44:35.282Z,3.20
2023-05-02T10:47:19.176Z,3.47
2023-05-02T10:49:54.338Z,3.47
2023-05-02T10:52:30.475Z,3.08
2023-05-02T10:55:17.807Z,3.17
2023-05-02T10:58:28.311Z,3.42
2023-05-02T11:01:43.186Z,3.65
2023-05-02T11:04:11.892Z,3.10
2023-05-02T11:07:14.795Z,2.70
2023-05-02T11:09:42.519Z,2.78
2023-05-02T11:12:10.602Z,2.60
2023-05-02T11:14:49.601Z,3.00
2023-05-02T11:17:21.841Z,2.70
2023-05-02T11:20:29.130Z,2.80
2023-05-02T11:22:58.980Z,2.97
2023-05-02T11:25:34.144Z,3.53
2023-05-02T11:28:02.727Z,4.43
2023-05-02T11:30:41.614Z,4.10
2023-05-02T11:33:17.767Z,4.15
2023-05-02T11:35:47.162Z,4.45
2023-05-02T11:38:17.146Z,4.35
2023-05-02T11:43:39.671Z,4.25
2023-05-02T11:46:07.854Z,5.18
2023-05-02T11:48:37.024Z,4.60
2023-05-02T11:51:07.420Z,4.97
2023-05-02T11:56:04.928Z,3.97
2023-05-02T11:58:34.133Z,4.18
2023-05-02T12:01:15.455Z,4.43
2023-05-02T12:03:45.581Z,3.58
2023-05-02T12:06:15.946Z,3.83
2023-05-02T12:08:45.482Z,3.13
2023-05-02T12:11:15.362Z,3.58
2023-05-02T12:13:47.637Z,3.20
2023-05-02T12:16:15.784Z,2.95
2023-05-02T12:18:46.340Z,2.50
2023-05-02T12:21:14.279Z,2.83
2023-05-02T12:23:43.292Z,3.17
2023-05-02T12:26:21.899Z,3.08
2023-05-02T12:28:52.521Z,3.17
2023-05-02T12:31:20.749Z,2.85
2023-05-02T12:33:52.346Z,3.00
2023-05-02T12:36:20.934Z,2.67
2023-05-02T12:38:53.806Z,2.92
2023-05-02T12:41:33.436Z,2.92
2023-05-02T12:44:02.008Z,3.00
2023-05-02T12:46:30.067Z,3.08
2023-05-02T12:49:07.062Z,2.50
2023-05-02T12:51:35.049Z,2.90
2023-05-02T12:54:03.002Z,2.80
2023-05-02T12:56:32.997Z,3.25
2023-05-02T12:59:04.840Z,3.00
2023-05-02T13:01:35.809Z,3.33
2023-05-02T13:04:05.709Z,2.72
2023-05-02T13:06:34.030Z,4.13
2023-05-02T13:09:02.156Z,3.13
2023-05-02T13:11:29.829Z,3.03
2023-05-02T13:13:57.842Z,3.40
2023-05-02T13:16:25.933Z,3.30
2023-05-02T13:18:53.878Z,3.70
2023-05-02T13:21:23.987Z,3.50
2023-05-02T13:23:52.227Z,3.38
2023-05-02T13:26:20.277Z,3.40
2023-05-02T13:28:48.372Z,3.40
2023-05-02T13:31:16.123Z,3.53
2023-05-02T13:33:44.236Z,3.45
2023-05-02T13:36:11.876Z,3.47
2023-05-02T13:38:41.013Z,3.10
2023-05-02T13:41:09.349Z,3.78
2023-05-02T13:43:37.170Z,3.33
2023-05-02T13:46:05.000Z,3.72
2023-05-02T13:48:33.770Z,3.60
2023-05-02T13:51:02.074Z,3.05
2023-05-02T13:53:30.303Z,3.30
2023-05-02T13:55:59.329Z,3.53
2023-05-02T13:58:26.927Z,2.70
2023-05-02T14:00:55.017Z,3.25
2023-05-02T14:03:22.720Z,3.42
2023-05-02T14:05:50.389Z,3.20
2023-05-02T14:08:20.266Z,3.38
2023-05-02T14:10:47.914Z,3.30
2023-05-02T14:13:16.935Z,3.00
2023-05-02T14:15:44.984Z,3.22
2023-05-02T14:18:12.747Z,3.80
2023-05-02T14:20:40.725Z,3.10
2023-05-02T14:23:08.403Z,3.15
2023-05-02T14:25:36.783Z,3.33
2023-05-02T14:28:06.674Z,3.28
2023-05-02T14:30:35.884Z,2.80
2023-05-02T14:33:03.626Z,2.88
2023-05-02T14:35:31.775Z,3.30
2023-05-02T14:37:59.457Z,2.83
2023-05-02T14:40:27.391Z,3.10
2023-05-02T14:42:56.105Z,2.95
2023-05-02T14:45:23.785Z,3.08
2023-05-02T14:47:53.476Z,3.00
2023-05-02T14:50:21.591Z,3.27
2023-05-02T14:52:49.305Z,3.03
2023-05-02T14:55:17.482Z,3.20
2023-05-02T14:57:45.698Z,2.95
2023-05-02T15:00:14.651Z,3.17
2023-05-02T15:02:43.541Z,3.00
2023-05-02T15:05:13.054Z,2.80
2023-05-02T15:07:41.168Z,2.73
2023-05-02T15:10:10.311Z,2.90
2023-05-02T15:12:38.451Z,3.00
2023-05-02T15:15:08.985Z,3.33
2023-05-02T15:20:05.491Z,3.00
2023-05-02T15:22:35.861Z,3.38
2023-05-02T15:25:05.367Z,2.63
2023-05-02T15:27:33.285Z,2.63
2023-05-02T15:30:03.589Z,3.30
2023-05-02T15:34:59.091Z,2.88
2023-05-02T15:37:27.211Z,3.30
2023-05-02T15:39:56.348Z,3.28
2023-05-02T15:42:24.996Z,3.08
2023-05-02T15:44:53.909Z,3.28
2023-05-02T15:47:22.610Z,2.97
2023-05-02T15:49:53.704Z,3.13
2023-05-02T15:52:22.756Z,2.75
2023-05-02T15:54:51.506Z,3.13
2023-05-02T15:57:21.150Z,2.97
2023-05-02T15:59:49.236Z,2.83
2023-05-02T16:02:16.931Z,2.80
2023-05-02T16:04:44.606Z,3.20
2023-05-02T16:07:14.326Z,3.83
2023-05-02T16:09:42.509Z,3.13
2023-05-02T16:12:10.647Z,2.95
2023-05-02T16:14:40.044Z,3.03
2023-05-02T16:17:07.754Z,3.35
2023-05-02T16:19:35.403Z,3.47
2023-05-02T16:22:03.532Z,2.70
2023-05-02T16:24:31.161Z,2.95
2023-05-02T16:26:58.938Z,2.85
2023-05-02T16:29:27.850Z,2.72
2023-05-02T16:31:57.031Z,2.65
2023-05-02T16:34:24.924Z,3.05
2023-05-02T16:36:53.407Z,2.78
2023-05-02T16:39:20.991Z,3.22
2023-05-02T16:41:49.292Z,3.10
2023-05-02T16:44:18.053Z,2.58
2023-05-02T16:46:46.142Z,3.17
2023-05-02T16:49:15.848Z,2.63
2023-05-02T16:51:43.519Z,2.57
2023-05-02T16:54:11.688Z,2.75
2023-05-02T16:56:41.327Z,3.03
2023-05-02T16:59:10.241Z,3.17
2023-05-02T17:01:38.047Z,3.72
2023-05-02T17:04:06.470Z,3.08
2023-05-02T17:06:35.620Z,3.40
2023-05-02T17:09:04.094Z,3.35
2023-05-02T17:11:31.794Z,2.75
2023-05-02T17:13:59.920Z,3.45
2023-05-02T17:16:27.595Z,2.70
2023-05-02T17:18:55.691Z,3.33
2023-05-02T17:21:23.525Z,3.50
2023-05-02T17:23:53.660Z,2.78
2023-05-02T17:26:22.063Z,2.90
2023-05-02T17:28:53.754Z,3.08
2023-05-02T17:31:22.000Z,2.80
2023-05-02T17:33:49.896Z,3.05
2023-05-02T17:36:18.068Z,2.97
2023-05-02T17:38:45.795Z,3.35
2023-05-02T17:41:15.751Z,2.80
2023-05-02T17:43:43.534Z,3.05
2023-05-02T17:46:12.637Z,3.13
2023-05-02T17:48:43.815Z,2.92
2023-05-02T17:51:11.753Z,3.42
2023-05-02T17:53:39.908Z,3.05
2023-05-02T17:56:08.155Z,3.38
2023-05-02T17:58:37.901Z,3.63
2023-05-02T18:01:09.530Z,2.90
2023-05-02T18:03:37.567Z,3.38
2023-05-02T18:06:06.574Z,3.75
2023-05-02T18:08:34.858Z,3.40
2023-05-02T18:11:03.210Z,3.58
2023-05-02T18:13:31.533Z,4.10
2023-05-02T18:16:01.903Z,3.58
2023-05-02T18:18:29.982Z,3.42
2023-05-02T18:20:57.649Z,3.35
2023-05-02T18:23:25.387Z,3.60
2023-05-02T18:25:54.248Z,3.28
2023-05-02T18:28:21.964Z,3.83
2023-05-02T18:30:49.659Z,3.58
2023-05-02T18:33:19.231Z,4.05
2023-05-02T18:35:47.931Z,3.42
2023-05-02T18:38:16.113Z,3.05
2023-05-02T18:40:44.381Z,3.13
2023-05-02T18:43:12.051Z,3.63
2023-05-02T18:48:27.785Z,3.33
2023-05-02T18:50:57.029Z,3.08
2023-05-02T18:53:26.413Z,3.47
2023-05-02T18:55:54.379Z,2.75
2023-05-02T18:58:22.907Z,3.33
2023-05-02T19:00:50.995Z,3.45
2023-05-02T19:03:18.991Z,3.38
2023-05-02T19:05:51.202Z,3.38
2023-05-02T19:08:19.026Z,3.50
2023-05-02T19:10:46.691Z,3.42
2023-05-02T19:13:14.917Z,3.95
2023-05-02T19:15:43.101Z,4.25
2023-05-02T19:18:10.832Z,4.30
2023-05-02T19:20:39.091Z,3.95
2023-05-02T19:23:19.785Z,4.18
2023-05-02T19:25:49.661Z,3.30
2023-05-02T19:28:17.321Z,3.67
2023-05-02T19:30:45.498Z,3.22
2023-05-02T19:33:13.813Z,3.90
2023-05-02T19:35:41.599Z,3.05
2023-05-02T19:38:10.641Z,3.58
2023-05-02T19:40:38.716Z,3.42
2023-05-02T19:43:06.355Z,3.08
2023-05-02T19:45:34.094Z,3.10
2023-05-02T19:48:02.943Z,3.30
2023-05-02T19:50:30.609Z,3.53
2023-05-02T19:52:58.621Z,3.70
2023-05-02T19:55:27.665Z,3.53
2023-05-02T19:57:55.304Z,3.67
2023-05-02T20:00:23.541Z,3.35
2023-05-02T20:02:51.741Z,3.45
2023-05-02T20:05:19.730Z,3.90
2023-05-02T20:07:48.216Z,3.55
2023-05-02T20:10:18.219Z,3.47
2023-05-02T20:12:47.688Z,3.08
2023-05-02T20:15:16.673Z,2.90
2023-05-02T20:17:44.453Z,2.85
2023-05-02T20:20:13.666Z,2.50
2023-05-02T20:22:41.374Z,2.97
2023-05-02T20:25:11.443Z,2.97
2023-05-02T20:27:40.549Z,2.92
2023-05-02T20:30:10.482Z,2.70
2023-05-02T20:32:38.245Z,2.60
2023-05-02T20:35:06.815Z,2.50
2023-05-02T20:37:34.553Z,2.42
2023-05-02T20:40:02.740Z,3.25
2023-05-02T20:42:30.564Z,2.83
2023-05-02T20:45:00.592Z,2.75
2023-05-02T20:47:31.321Z,2.33
2023-05-02T20:49:59.041Z,2.80
2023-05-02T20:52:27.189Z,2.60
2023-05-02T20:54:55.462Z,2.58
2023-05-02T20:57:24.584Z,2.40
2023-05-02T20:59:52.273Z,2.22
2023-05-02T21:02:19.991Z,2.10
2023-05-02T21:04:49.316Z,2.20
2023-05-02T21:07:16.974Z,2.05
2023-05-02T21:09:45.729Z,2.78
2023-05-02T21:12:13.923Z,2.20
2023-05-02T21:14:41.606Z,2.53
2023-05-02T21:17:09.717Z,2.47
2023-05-02T21:19:37.660Z,1.90
2023-05-02T21:22:07.099Z,2.25
2023-05-02T21:24:35.092Z,1.98
2023-05-02T21:27:02.954Z,1.75
2023-05-02T21:29:31.605Z,1.90
2023-05-02T21:31:59.258Z,2.42
2023-05-02T21:34:27.433Z,2.30
2023-05-02T21:36:55.087Z,2.10
2023-05-02T21:39:24.154Z,2.13
2023-05-02T21:41:52.179Z,2.83
2023-05-02T21:44:19.826Z,2.28
2023-05-02T21:46:48.163Z,2.00
2023-05-02T21:49:16.699Z,2.30
2023-05-02T21:51:44.992Z,1.90
2023-05-02T21:54:12.631Z,2.10
2023-05-02T21:56:41.643Z,2.17
2023-05-02T21:59:09.758Z,2.30
2023-05-02T22:01:37.380Z,2.47
2023-05-02T22:04:05.388Z,2.30
2023-05-02T22:06:34.656Z,2.35
2023-05-02T22:09:02.367Z,2.47
2023-05-02T22:11:31.844Z,2.70
2023-05-02T22:14:00.851Z,2.20
2023-05-02T22:16:28.573Z,2.20
2023-05-02T22:18:58.127Z,2.30
2023-05-02T22:21:25.925Z,2.20
2023-05-02T22:23:53.998Z,2.13
2023-05-02T22:26:22.738Z,2.08
2023-05-02T22:28:50.816Z,2.45
2023-05-02T22:31:21.423Z,2.10
2023-05-02T22:36:18.596Z,2.17
2023-05-02T22:38:46.734Z,2.42
2023-05-02T22:41:14.450Z,2.22
2023-05-02T22:43:42.509Z,2.70
2023-05-02T22:46:10.230Z,2.25
2023-05-02T22:48:40.349Z,2.17
2023-05-02T22:51:08.134Z,2.50
2023-05-02T22:53:36.296Z,2.22
2023-05-02T22:56:04.732Z,2.53
2023-05-02T22:58:32.643Z,2.63
2023-05-02T23:01:00.662Z,2.40
2023-05-02T23:03:28.436Z,2.28
2023-05-02T23:05:58.680Z,2.63
2023-05-02T23:08:26.419Z,2.72
2023-05-02T23:10:54.087Z,2.58
2023-05-02T23:13:22.092Z,1.90
2023-05-02T23:15:54.399Z,2.05
2023-05-02T23:18:22.528Z,2.47
2023-05-02T23:20:50.218Z,2.75
2023-05-02T23:23:19.264Z,2.03
2023-05-02T23:25:47.485Z,2.22
2023-05-02T23:28:15.146Z,2.30
2023-05-02T23:30:43.153Z,2.75
2023-05-02T23:33:12.198Z,2.33
2023-05-02T23:35:40.322Z,2.40
2023-05-02T23:38:08.725Z,2.35
2023-05-02T23:40:38.102Z,2.35
2023-05-02T23:43:07.353Z,2.10
2023-05-02T23:45:35.369Z,2.20
2023-05-02T23:48:03.170Z,2.58
2023-05-02T23:50:32.867Z,2.47
2023-05-02T23:53:01.142Z,2.35
2023-05-02T23:55:29.346Z,2.30
2023-05-02T23:57:58.898Z,2.42
